Aviation Digital Data Service (ADDS)

Output produced by METARs form (0422 UTC 30 June 2022)
found at http://aviationweather.gov/metar/data/
 
LIRF 300350Z 02002KT CAVOK 18/18 Q1011 NOSIG
TAF LIRF 292300Z 3000/0106 VRB04KT 9999 FEW030 
     TEMPO 3001/3005 3000 BR 
     BECMG 3009/3011 27012KT 
     BECMG 3017/3019 VRB04KT 
     TEMPO 0100/0105 3000 BR